Time;durP1;ratioP1;P1;durP2;ratioP2;P2;SDS_P1;SDS_P2;PMS_P1;PMS_P2;Temp;Humidity;BMP_temperature;BMP_pressure;BME280_temperature;BME280_humidity;BME280_pressure;Samples;Min_cycle;Max_cycle;Signal;HPM_P1;HPM_P2
2022/09/15 00:01:53;;;;;;;8.30;5.30;;;15.70;77.90;;;;;;6211624;23;20008;-67
2022/09/15 00:04:19;;;;;;;6.32;4.97;;;15.70;77.90;;;;;;6211851;23;20432;-66
2022/09/15 00:06:44;;;;;;;6.28;4.95;;;15.70;77.90;;;;;;6211491;23;20008;-67
2022/09/15 00:09:10;;;;;;;6.85;4.80;;;15.80;77.90;;;;;;6211550;23;20026;-67
2022/09/15 00:11:37;;;;;;;7.40;5.57;;;15.80;77.90;;;;;;6211853;23;20078;-66
2022/09/15 00:14:04;;;;;;;8.27;5.18;;;15.80;78.00;;;;;;6210858;23;20015;-66
2022/09/15 00:16:31;;;;;;;6.68;4.72;;;15.90;78.10;;;;;;6211412;23;20341;-66
2022/09/15 00:18:58;;;;;;;7.07;5.15;;;15.90;78.20;;;;;;6211918;23;20434;-66
2022/09/15 00:21:29;;;;;;;8.13;6.10;;;15.90;78.30;;;;;;6211681;23;20000;-66
2022/09/15 00:23:55;;;;;;;7.25;5.43;;;16.00;78.60;;;;;;6212230;23;20001;-66
2022/09/15 00:26:23;;;;;;;8.88;5.47;;;16.00;78.50;;;;;;6211379;23;20039;-66
2022/09/15 00:28:49;;;;;;;7.68;5.13;;;16.10;78.50;;;;;;6211540;23;20064;-66
2022/09/15 00:31:18;;;;;;;8.13;5.25;;;16.10;78.30;;;;;;6211688;23;20480;-66
2022/09/15 00:33:49;;;;;;;7.40;5.13;;;16.20;78.20;;;;;;6211748;23;20008;-66
2022/09/15 00:36:16;;;;;;;5.10;4.07;;;16.30;78.10;;;;;;6211637;23;20453;-65
2022/09/15 00:38:41;;;;;;;6.25;4.70;;;16.30;78.10;;;;;;6211119;23;20032;-65
2022/09/15 00:41:10;;;;;;;5.90;4.55;;;16.30;78.20;;;;;;6213654;23;20001;-65
2022/09/15 00:44:02;;;;;;;5.20;4.15;;;16.30;78.20;;;;;;6213555;23;20068;-66
2022/09/15 00:46:35;;;;;;;5.18;3.83;;;16.40;78.30;;;;;;6209689;23;20087;-65
2022/09/15 00:49:09;;;;;;;5.60;3.80;;;16.40;78.30;;;;;;6213666;23;20039;-65
2022/09/15 00:51:41;;;;;;;5.50;4.03;;;16.40;78.30;;;;;;6212945;23;20386;-65
2022/09/15 00:54:12;;;;;;;6.88;3.92;;;16.40;78.40;;;;;;6213719;23;20016;-65
2022/09/15 00:56:41;;;;;;;6.73;3.90;;;16.40;78.40;;;;;;6213295;23;20005;-65
2022/09/15 00:59:13;;;;;;;6.43;4.53;;;16.40;78.40;;;;;;6213586;23;20004;-65
2022/09/15 01:01:40;;;;;;;5.32;3.70;;;16.50;78.60;;;;;;6213499;23;20070;-65
2022/09/15 01:04:06;;;;;;;5.82;3.90;;;16.40;78.70;;;;;;6213361;23;20000;-65
2022/09/15 01:06:37;;;;;;;6.22;3.33;;;16.40;78.70;;;;;;6213373;23;20007;-65
2022/09/15 01:09:10;;;;;;;4.72;3.45;;;16.40;78.70;;;;;;6211419;23;20005;-65
2022/09/15 01:11:37;;;;;;;4.65;3.15;;;16.40;78.60;;;;;;6213499;23;19996;-66
2022/09/15 01:14:03;;;;;;;5.28;3.40;;;16.40;78.60;;;;;;6212575;23;20008;-66
2022/09/15 01:17:14;;;;;;;4.40;3.13;;;16.40;78.60;;;;;;6213216;23;20318;-66
2022/09/15 01:20:09;;;;;;;5.75;3.28;;;16.40;78.70;;;;;;6213026;23;20055;-66
2022/09/15 01:22:40;;;;;;;4.28;3.10;;;16.40;78.70;;;;;;6213333;23;20011;-66
2022/09/15 01:25:25;;;;;;;4.13;3.07;;;16.40;78.70;;;;;;6213434;23;20007;-66
2022/09/15 01:28:15;;;;;;;4.63;2.92;;;16.40;78.70;;;;;;6212647;23;20039;-66
2022/09/15 01:30:49;;;;;;;5.72;3.72;;;16.40;78.70;;;;;;6213349;23;20023;-67
2022/09/15 01:33:39;;;;;;;5.53;3.63;;;16.30;78.80;;;;;;6212762;23;20075;-66
2022/09/15 01:36:25;;;;;;;5.38;3.72;;;16.30;78.80;;;;;;6213310;23;20011;-67
2022/09/15 01:38:59;;;;;;;5.68;3.30;;;16.30;78.90;;;;;;6196456;23;20085;-66
2022/09/15 01:41:43;;;;;;;6.15;3.50;;;16.30;78.90;;;;;;6213292;23;20009;-66
2022/09/15 01:44:32;;;;;;;4.93;3.50;;;16.30;78.90;;;;;;6212695;23;20008;-67
2022/09/15 01:47:02;;;;;;;5.40;3.60;;;16.30;78.80;;;;;;6212283;23;20004;-66
2022/09/15 01:49:34;;;;;;;6.40;3.40;;;16.30;78.80;;;;;;6212740;23;20599;-66
2022/09/15 01:52:00;;;;;;;5.45;3.90;;;16.30;78.90;;;;;;6211433;23;20648;-66
2022/09/15 01:54:31;;;;;;;3.67;3.15;;;16.30;78.80;;;;;;6211583;23;20067;-67
2022/09/15 01:56:57;;;;;;;4.70;3.40;;;16.30;78.80;;;;;;6211576;23;20000;-66
2022/09/15 01:59:23;;;;;;;4.68;3.15;;;16.30;78.80;;;;;;6212331;23;20016;-66
2022/09/15 02:02:00;;;;;;;3.97;3.25;;;16.30;78.90;;;;;;6211059;23;20330;-67
2022/09/15 02:04:46;;;;;;;5.75;3.20;;;16.40;78.90;;;;;;6212492;23;20072;-67
2022/09/15 02:07:29;;;;;;;4.78;3.22;;;16.40;78.90;;;;;;6212581;23;20007;-67
2022/09/15 02:10:16;;;;;;;3.55;2.72;;;16.40;78.80;;;;;;6212713;23;20311;-66
2022/09/15 02:12:49;;;;;;;5.55;3.20;;;16.40;78.70;;;;;;6213002;23;20076;-66
2022/09/15 02:15:27;;;;;;;4.68;2.80;;;16.40;78.70;;;;;;6212273;23;20004;-66
2022/09/15 02:17:54;;;;;;;3.78;2.80;;;16.40;78.60;;;;;;6211515;23;20011;-67
2022/09/15 02:20:24;;;;;;;5.38;3.47;;;16.40;78.60;;;;;;6212486;23;20434;-66
2022/09/15 02:22:54;;;;;;;4.53;2.83;;;16.40;78.70;;;;;;6212803;23;20005;-66
2022/09/15 02:25:34;;;;;;;5.53;3.40;;;16.30;78.70;;;;;;6212348;23;20341;-65
2022/09/15 02:28:05;;;;;;;3.20;2.47;;;16.30;78.80;;;;;;6212470;23;20535;-65
2022/09/15 02:30:33;;;;;;;4.88;3.25;;;16.30;78.80;;;;;;6212914;23;20046;-65
2022/09/15 02:33:04;;;;;;;4.57;3.40;;;16.20;78.80;;;;;;6212847;23;19997;-66
2022/09/15 02:35:32;;;;;;;5.85;3.58;;;16.20;78.90;;;;;;6213021;23;20004;-66
2022/09/15 02:37:59;;;;;;;5.05;3.80;;;16.10;78.90;;;;;;6212549;23;20005;-66
2022/09/15 02:40:27;;;;;;;6.68;4.07;;;16.10;78.90;;;;;;6212831;23;20027;-66
2022/09/15 02:43:00;;;;;;;6.05;4.10;;;16.10;79.00;;;;;;6212723;23;20028;-67
2022/09/15 02:45:26;;;;;;;4.43;3.45;;;16.00;79.10;;;;;;6212676;23;20035;-66
2022/09/15 02:47:52;;;;;;;5.70;3.67;;;15.90;79.20;;;;;;6212005;23;20008;-67
2022/09/15 02:50:19;;;;;;;5.07;3.80;;;15.90;79.30;;;;;;6212295;23;20338;-67
2022/09/15 02:52:45;;;;;;;5.03;4.03;;;15.90;79.40;;;;;;6212615;23;19997;-66
2022/09/15 02:55:11;;;;;;;4.68;3.58;;;15.90;79.40;;;;;;6212145;23;20004;-67
2022/09/15 02:57:36;;;;;;;5.35;3.63;;;15.80;79.40;;;;;;6212377;23;20063;-67
2022/09/15 03:00:14;;;;;;;4.90;4.07;;;15.80;79.40;;;;;;6212014;23;20012;-67
2022/09/15 03:02:49;;;;;;;6.85;3.88;;;15.80;79.30;;;;;;6212447;23;20055;-67
2022/09/15 03:05:15;;;;;;;5.40;3.67;;;15.80;79.40;;;;;;6212071;23;20058;-65
2022/09/15 03:07:41;;;;;;;5.43;4.00;;;15.70;79.30;;;;;;6211989;23;20006;-65
2022/09/15 03:10:09;;;;;;;4.70;3.75;;;15.70;79.40;;;;;;6212040;23;20583;-65
2022/09/15 03:12:43;;;;;;;3.88;3.10;;;15.60;79.40;;;;;;6212102;23;20004;-66
2022/09/15 03:15:11;;;;;;;4.32;3.50;;;15.60;79.50;;;;;;6211990;23;20000;-65
2022/09/15 03:17:40;;;;;;;4.43;3.53;;;15.60;79.60;;;;;;6211826;23;20000;-66
2022/09/15 03:20:07;;;;;;;4.93;3.47;;;15.60;79.60;;;;;;6212112;23;20000;-66
2022/09/15 03:22:33;;;;;;;3.90;3.47;;;15.60;79.60;;;;;;6212143;23;20096;-67
2022/09/15 03:24:58;;;;;;;3.92;3.17;;;15.60;79.60;;;;;;6211579;23;20032;-65
2022/09/15 03:27:24;;;;;;;5.65;3.67;;;15.60;79.60;;;;;;6211639;23;20009;-66
2022/09/15 03:29:50;;;;;;;5.40;3.60;;;15.60;79.60;;;;;;6211717;23;20055;-66
2022/09/15 03:32:15;;;;;;;5.97;4.07;;;15.60;79.60;;;;;;6210719;23;20008;-66
2022/09/15 03:34:41;;;;;;;5.32;3.75;;;15.60;79.60;;;;;;6211775;23;20008;-66
2022/09/15 03:37:07;;;;;;;5.65;3.38;;;15.60;79.60;;;;;;6211986;23;20004;-67
2022/09/15 03:39:32;;;;;;;4.03;3.10;;;15.60;79.60;;;;;;6209099;23;20045;-66
2022/09/15 03:41:58;;;;;;;5.65;3.10;;;15.60;79.60;;;;;;6210344;23;20059;-66
2022/09/15 03:44:24;;;;;;;3.90;3.17;;;15.60;79.60;;;;;;6211916;23;20000;-65
2022/09/15 03:46:49;;;;;;;4.05;3.40;;;15.60;79.50;;;;;;6211823;23;20052;-66
2022/09/15 03:49:15;;;;;;;3.70;3.03;;;15.60;79.50;;;;;;6211801;23;20007;-66
2022/09/15 03:51:41;;;;;;;5.65;3.70;;;15.70;79.50;;;;;;6210649;23;20007;-66
2022/09/15 03:54:07;;;;;;;4.65;3.40;;;15.70;79.40;;;;;;6211608;23;20430;-67
2022/09/15 03:56:33;;;;;;;3.83;2.90;;;15.70;79.40;;;;;;6211475;23;20005;-66
2022/09/15 03:59:00;;;;;;;5.18;3.25;;;15.70;79.30;;;;;;6211706;23;20000;-66
2022/09/15 04:01:27;;;;;;;5.32;3.28;;;15.70;79.30;;;;;;6210088;23;20001;-65
2022/09/15 04:03:52;;;;;;;4.53;2.90;;;15.70;79.40;;;;;;6211473;23;20021;-65
2022/09/15 04:06:20;;;;;;;5.68;3.20;;;15.70;79.30;;;;;;6211828;23;20560;-66
2022/09/15 04:08:46;;;;;;;5.38;3.40;;;15.80;79.40;;;;;;6211710;23;20003;-65
2022/09/15 04:11:12;;;;;;;4.57;3.00;;;15.70;79.30;;;;;;6209770;23;20008;-66
2022/09/15 04:13:40;;;;;;;4.25;3.05;;;15.80;79.40;;;;;;6212123;23;19997;-66
2022/09/15 04:16:11;;;;;;;4.25;2.63;;;15.80;79.40;;;;;;6213178;23;20337;-66
2022/09/15 04:18:37;;;;;;;3.83;2.93;;;15.80;79.40;;;;;;6215341;23;20004;-65
2022/09/15 04:21:12;;;;;;;4.10;2.67;;;15.80;79.50;;;;;;6215093;23;20299;-65
2022/09/15 04:23:38;;;;;;;3.67;2.78;;;15.80;79.40;;;;;;6214863;23;20458;-65
2022/09/15 04:26:06;;;;;;;3.22;2.42;;;15.90;79.40;;;;;;6215153;23;20008;-65
2022/09/15 04:28:34;;;;;;;4.82;2.75;;;15.90;79.40;;;;;;6214586;23;20350;-65
2022/09/15 04:31:06;;;;;;;4.15;2.80;;;15.90;79.40;;;;;;6214755;23;20024;-65
2022/09/15 04:33:32;;;;;;;4.97;2.70;;;15.90;79.30;;;;;;6214858;23;19997;-65
2022/09/15 04:36:10;;;;;;;4.40;2.47;;;15.90;79.40;;;;;;6214763;23;20004;-64
2022/09/15 04:38:35;;;;;;;5.22;2.17;;;15.90;79.40;;;;;;6213381;23;20407;-65
2022/09/15 04:41:02;;;;;;;4.70;2.65;;;15.90;79.40;;;;;;6214918;23;20005;-65
2022/09/15 04:43:29;;;;;;;3.15;2.30;;;15.90;79.50;;;;;;6215166;23;20023;-64
2022/09/15 04:45:55;;;;;;;3.25;2.10;;;15.90;79.50;;;;;;6214722;23;20028;-65
2022/09/15 04:48:21;;;;;;;2.45;2.17;;;15.90;79.40;;;;;;6215414;23;19997;-65
2022/09/15 04:50:47;;;;;;;3.10;2.30;;;15.90;79.40;;;;;;6214766;23;20001;-64
2022/09/15 04:53:12;;;;;;;3.10;2.17;;;15.90;79.30;;;;;;6215482;23;20028;-64
2022/09/15 04:55:38;;;;;;;2.47;2.10;;;15.90;79.20;;;;;;6215345;23;20055;-65
2022/09/15 04:58:04;;;;;;;3.13;2.15;;;15.90;79.20;;;;;;6215150;23;20039;-65
2022/09/15 05:00:33;;;;;;;3.10;2.20;;;15.90;79.10;;;;;;6215026;23;20005;-66
2022/09/15 05:02:58;;;;;;;5.28;2.10;;;15.90;79.10;;;;;;6212416;23;20028;-65
2022/09/15 05:05:25;;;;;;;5.05;1.92;;;16.00;79.10;;;;;;6214781;23;20008;-66
2022/09/15 05:07:51;;;;;;;4.10;2.22;;;15.90;79.60;;;;;;6214685;23;20024;-66
2022/09/15 05:10:18;;;;;;;3.50;1.95;;;16.00;78.90;;;;;;6214348;23;20085;-67
2022/09/15 05:12:44;;;;;;;3.22;2.05;;;16.00;78.80;;;;;;6214555;23;20337;-67
2022/09/15 05:15:10;;;;;;;2.67;1.90;;;16.00;78.80;;;;;;6214528;23;20011;-67
2022/09/15 05:17:35;;;;;;;3.33;2.20;;;16.00;78.70;;;;;;6214901;23;20008;-66
2022/09/15 05:20:02;;;;;;;2.83;2.00;;;16.00;78.60;;;;;;6214996;23;20005;-66
2022/09/15 05:22:28;;;;;;;4.80;2.10;;;16.00;78.60;;;;;;6214589;23;20486;-67
2022/09/15 05:24:53;;;;;;;2.35;1.80;;;16.00;78.50;;;;;;6215085;23;20032;-66
2022/09/15 05:27:19;;;;;;;3.53;2.13;;;16.00;78.50;;;;;;6212867;23;20004;-66
2022/09/15 05:29:45;;;;;;;3.65;1.75;;;16.00;78.40;;;;;;6213482;23;19997;-66
2022/09/15 05:32:10;;;;;;;2.88;1.98;;;16.00;78.40;;;;;;6213491;23;20071;-65
2022/09/15 05:34:36;;;;;;;2.90;1.90;;;16.00;78.20;;;;;;6212525;23;20385;-65
2022/09/15 05:37:02;;;;;;;4.07;2.03;;;16.00;78.10;;;;;;6210111;23;20035;-65
2022/09/15 05:39:27;;;;;;;3.13;2.03;;;16.00;78.10;;;;;;6210801;23;20005;-66
2022/09/15 05:41:53;;;;;;;1.90;1.67;;;16.00;78.00;;;;;;6211386;23;20009;-66
2022/09/15 05:44:20;;;;;;;3.35;1.80;;;16.00;78.00;;;;;;6210566;23;20080;-67
2022/09/15 05:46:46;;;;;;;2.88;1.70;;;16.00;77.90;;;;;;6210985;23;20371;-66
2022/09/15 05:49:12;;;;;;;2.17;1.50;;;16.10;77.90;;;;;;6212655;23;20001;-66
2022/09/15 05:51:38;;;;;;;2.90;1.70;;;16.10;77.80;;;;;;6212543;23;20389;-66
2022/09/15 05:54:04;;;;;;;3.13;1.73;;;16.10;77.70;;;;;;6212766;23;20001;-66
2022/09/15 05:56:30;;;;;;;3.20;1.80;;;16.20;77.70;;;;;;6212613;23;20311;-66
2022/09/15 05:58:56;;;;;;;2.53;1.67;;;16.20;77.60;;;;;;6212138;23;20084;-66
2022/09/15 06:01:27;;;;;;;2.22;1.70;;;16.20;77.60;;;;;;6212475;23;20032;-65
2022/09/15 06:03:53;;;;;;;3.72;2.20;;;16.20;77.70;;;;;;6212093;23;20221;-65
2022/09/15 06:06:20;;;;;;;4.07;2.33;;;16.10;77.60;;;;;;6212535;23;20009;-65
2022/09/15 06:08:48;;;;;;;3.17;2.03;;;16.10;77.80;;;;;;6212423;23;20047;-65
2022/09/15 06:11:17;;;;;;;3.00;2.20;;;16.10;77.80;;;;;;6212095;23;19996;-65
2022/09/15 06:13:43;;;;;;;2.78;1.90;;;16.10;77.80;;;;;;6212868;23;20024;-65
2022/09/15 06:16:14;;;;;;;3.17;2.15;;;16.20;77.80;;;;;;6212636;23;20054;-65
2022/09/15 06:18:40;;;;;;;3.63;2.00;;;16.10;77.80;;;;;;6212856;23;20004;-66
2022/09/15 06:21:11;;;;;;;3.42;2.03;;;16.10;77.80;;;;;;6212532;23;20028;-65
2022/09/15 06:23:38;;;;;;;3.00;2.00;;;16.20;77.80;;;;;;6212637;23;20034;-66
2022/09/15 06:26:14;;;;;;;2.83;2.28;;;16.20;77.70;;;;;;6212861;23;20060;-65
2022/09/15 06:28:45;;;;;;;3.60;2.20;;;16.30;77.60;;;;;;6208721;23;20341;-66
2022/09/15 06:31:12;;;;;;;3.60;1.93;;;16.40;77.40;;;;;;6208905;23;20005;-65
2022/09/15 06:33:45;;;;;;;3.40;2.00;;;16.40;77.20;;;;;;6208316;23;20480;-65
2022/09/15 06:36:15;;;;;;;3.60;1.98;;;16.60;77.00;;;;;;6208547;23;20008;-66
2022/09/15 06:38:41;;;;;;;3.03;2.00;;;16.70;76.80;;;;;;6209670;23;20035;-66
2022/09/15 06:41:08;;;;;;;3.35;2.08;;;16.70;76.60;;;;;;6208486;23;20001;-66
2022/09/15 06:43:35;;;;;;;3.28;2.10;;;16.80;76.60;;;;;;6209744;23;20039;-66
2022/09/15 06:46:09;;;;;;;3.90;2.20;;;16.80;76.50;;;;;;6209671;23;20405;-66
2022/09/15 06:48:36;;;;;;;4.05;2.00;;;16.90;76.50;;;;;;6210392;23;20414;-66
2022/09/15 06:51:02;;;;;;;3.20;1.70;;;16.90;76.40;;;;;;6209366;23;19997;-67
2022/09/15 06:53:29;;;;;;;4.60;2.08;;;16.90;76.30;;;;;;6209830;23;19996;-65
2022/09/15 06:56:00;;;;;;;2.03;1.80;;;16.90;76.20;;;;;;6209835;23;20004;-66
2022/09/15 06:58:25;;;;;;;2.72;1.80;;;16.90;76.10;;;;;;6208128;23;20008;-65
2022/09/15 07:00:51;;;;;;;4.13;1.90;;;17.00;76.00;;;;;;6209967;23;20395;-65
2022/09/15 07:03:17;;;;;;;2.83;1.77;;;17.00;76.00;;;;;;6209249;23;20008;-66
2022/09/15 07:05:43;;;;;;;4.43;1.70;;;17.00;75.90;;;;;;6208137;23;20083;-65
2022/09/15 07:08:09;;;;;;;3.85;1.55;;;17.10;75.80;;;;;;6209325;23;20024;-65
2022/09/15 07:10:34;;;;;;;4.43;1.65;;;17.10;75.80;;;;;;6209098;23;20000;-65
2022/09/15 07:13:00;;;;;;;2.45;1.65;;;17.20;75.60;;;;;;6208412;23;20001;-65
2022/09/15 07:15:26;;;;;;;2.95;1.55;;;17.20;75.30;;;;;;6209624;23;20075;-65
2022/09/15 07:17:52;;;;;;;2.03;1.45;;;17.20;75.30;;;;;;6207695;23;20091;-66
2022/09/15 07:20:17;;;;;;;1.65;1.40;;;17.20;75.30;;;;;;6208895;23;20386;-65
2022/09/15 07:22:43;;;;;;;4.07;1.70;;;17.20;75.20;;;;;;6208932;23;20015;-66
2022/09/15 07:25:08;;;;;;;4.13;1.48;;;17.20;75.20;;;;;;6208698;23;20015;-65
2022/09/15 07:27:34;;;;;;;3.20;1.67;;;17.30;75.10;;;;;;6207952;23;20796;-65
2022/09/15 07:29:59;;;;;;;2.10;1.40;;;17.30;75.00;;;;;;6210303;23;20023;-66
2022/09/15 07:32:25;;;;;;;3.65;1.55;;;17.40;74.90;;;;;;6207114;23;20066;-66
2022/09/15 07:34:51;;;;;;;7.93;5.85;;;17.40;74.60;;;;;;6209319;23;20465;-65
2022/09/15 07:37:17;;;;;;;5.10;2.92;;;17.50;74.30;;;;;;6210050;23;20001;-65
2022/09/15 07:39:42;;;;;;;3.53;1.80;;;17.50;74.10;;;;;;6209480;23;20080;-65
2022/09/15 07:42:08;;;;;;;3.83;1.60;;;17.50;73.80;;;;;;6209007;23;20468;-65
2022/09/15 07:44:33;;;;;;;3.40;1.25;;;17.60;73.70;;;;;;6209259;23;20012;-65
2022/09/15 07:46:59;;;;;;;4.25;1.35;;;17.70;73.50;;;;;;6208596;23;20000;-65
2022/09/15 07:49:24;;;;;;;2.97;1.30;;;17.70;73.20;;;;;;6209036;23;20051;-65
2022/09/15 07:51:50;;;;;;;3.28;1.17;;;17.80;72.80;;;;;;6208573;23;20021;-65
2022/09/15 07:54:15;;;;;;;3.42;1.05;;;18.00;72.40;;;;;;6209979;23;20385;-65
2022/09/15 07:56:41;;;;;;;4.53;1.10;;;18.30;72.00;;;;;;6209329;23;20028;-64
2022/09/15 07:59:06;;;;;;;3.53;1.20;;;18.40;71.30;;;;;;6209502;23;20007;-65
2022/09/15 08:01:32;;;;;;;3.65;1.10;;;18.50;70.80;;;;;;6208406;23;20606;-65
2022/09/15 08:03:58;;;;;;;3.53;1.15;;;18.40;70.30;;;;;;6209654;23;20000;-65
2022/09/15 08:06:25;;;;;;;4.80;1.17;;;18.30;70.30;;;;;;6208420;23;19997;-65
2022/09/15 08:08:51;;;;;;;5.50;1.33;;;18.20;70.30;;;;;;6207664;23;19997;-65
2022/09/15 08:11:18;;;;;;;4.60;1.40;;;18.00;70.30;;;;;;6208165;23;20047;-65
2022/09/15 08:13:44;;;;;;;4.15;1.35;;;17.90;70.30;;;;;;6209710;23;20047;-65
2022/09/15 08:16:13;;;;;;;4.03;1.20;;;17.80;70.50;;;;;;6211186;23;20031;-65
2022/09/15 08:18:40;;;;;;;3.65;1.30;;;17.80;70.60;;;;;;6210652;23;20005;-66
2022/09/15 08:21:08;;;;;;;4.32;1.38;;;17.80;70.80;;;;;;6210159;23;20009;-66
2022/09/15 08:23:34;;;;;;;1.92;0.90;;;17.80;70.90;;;;;;6207341;23;20009;-66
2022/09/15 08:26:00;;;;;;;4.05;1.70;;;17.80;71.00;;;;;;6210671;23;20032;-66
2022/09/15 08:28:26;;;;;;;4.75;1.65;;;17.70;70.80;;;;;;6210825;23;20009;-65
2022/09/15 08:31:06;;;;;;;4.32;1.70;;;17.70;71.10;;;;;;6211036;23;20327;-65
2022/09/15 08:33:33;;;;;;;2.83;1.77;;;17.70;71.20;;;;;;6210372;23;20004;-66
2022/09/15 08:36:04;;;;;;;7.25;1.45;;;17.70;71.30;;;;;;6209910;23;20079;-65
2022/09/15 08:38:30;;;;;;;2.33;1.40;;;17.80;71.20;;;;;;6210279;23;20370;-65
2022/09/15 08:41:02;;;;;;;3.47;1.40;;;18.00;71.10;;;;;;6210710;23;20039;-64
2022/09/15 08:43:35;;;;;;;2.47;1.40;;;18.00;70.80;;;;;;6209369;23;20000;-64
2022/09/15 08:46:08;;;;;;;1.98;1.23;;;18.10;70.70;;;;;;6210531;23;20000;-64
2022/09/15 08:48:42;;;;;;;2.53;1.27;;;18.20;70.30;;;;;;6210757;23;20000;-64
2022/09/15 08:51:18;;;;;;;2.50;1.10;;;18.30;70.10;;;;;;6211194;23;20005;-65
2022/09/15 08:53:50;;;;;;;4.05;1.45;;;18.30;69.90;;;;;;6210911;23;20000;-64
2022/09/15 08:56:19;;;;;;;3.45;1.27;;;18.40;69.60;;;;;;6209275;23;20092;-65
2022/09/15 08:58:45;;;;;;;3.10;1.10;;;18.40;69.50;;;;;;6208174;23;20698;-65
2022/09/15 09:01:38;;;;;;;3.15;1.02;;;18.50;69.50;;;;;;6208810;23;20004;-65
2022/09/15 09:04:13;;;;;;;3.88;1.30;;;18.60;69.20;;;;;;6211988;23;20000;-65
2022/09/15 09:07:19;;;;;;;2.97;0.90;;;18.70;68.70;;;;;;6211670;23;19996;-65
2022/09/15 09:09:54;;;;;;;1.73;0.70;;;18.80;68.30;;;;;;6212554;23;20425;-65
2022/09/15 09:12:57;;;;;;;2.72;1.05;;;18.90;67.80;;;;;;6212618;23;20001;-65
2022/09/15 09:16:08;;;;;;;3.60;0.98;;;19.00;67.40;;;;;;6212046;23;20004;-65
2022/09/15 09:19:04;;;;;;;2.15;0.70;;;19.10;66.50;;;;;;6212471;23;20011;-65
2022/09/15 09:21:34;;;;;;;1.35;0.60;;;19.10;65.70;;;;;;6212686;23;20000;-65
2022/09/15 09:24:02;;;;;;;3.42;1.00;;;19.10;65.40;;;;;;6212686;23;20008;-65
2022/09/15 09:26:31;;;;;;;3.20;0.68;;;19.00;64.20;;;;;;6212298;23;20495;-65
2022/09/15 09:29:06;;;;;;;2.30;0.63;;;19.10;64.20;;;;;;6212650;23;19997;-65
2022/09/15 09:31:35;;;;;;;2.40;0.70;;;19.20;64.00;;;;;;6212956;23;20047;-65
2022/09/15 09:34:27;;;;;;;1.58;0.80;;;19.30;63.70;;;;;;6212696;23;20004;-64
2022/09/15 09:37:12;;;;;;;1.55;0.70;;;19.30;63.20;;;;;;6212578;23;19997;-64
2022/09/15 09:39:38;;;;;;;2.40;0.88;;;19.20;62.70;;;;;;6211566;23;20003;-64
2022/09/15 09:42:05;;;;;;;2.78;0.80;;;19.20;62.90;;;;;;6211198;23;20001;-64
2022/09/15 09:44:31;;;;;;;1.33;0.70;;;19.20;63.00;;;;;;6212388;23;20001;-64
2022/09/15 09:47:01;;;;;;;3.88;1.10;;;19.30;63.10;;;;;;6212555;23;20001;-64
2022/09/15 09:49:33;;;;;;;3.33;1.40;;;19.40;62.90;;;;;;6212714;23;20024;-64
2022/09/15 09:52:02;;;;;;;2.67;0.90;;;19.40;62.70;;;;;;6212680;23;20433;-64
2022/09/15 09:54:30;;;;;;;1.38;0.70;;;19.30;62.20;;;;;;6212762;23;20007;-64
2022/09/15 09:57:26;;;;;;;3.40;1.73;;;19.30;62.40;;;;;;6210632;23;20056;-64
2022/09/15 09:59:52;;;;;;;3.00;1.40;;;19.40;62.30;;;;;;6211708;23;20015;-64
2022/09/15 10:02:25;;;;;;;3.88;1.50;;;19.40;62.40;;;;;;6212622;23;20031;-63
2022/09/15 10:04:53;;;;;;;2.53;1.10;;;19.30;62.80;;;;;;6212598;23;20005;-64
2022/09/15 10:07:25;;;;;;;2.00;0.70;;;19.30;61.80;;;;;;6212204;23;20028;-64
2022/09/15 10:09:56;;;;;;;2.33;0.80;;;19.20;61.20;;;;;;6212388;23;20008;-64
2022/09/15 10:12:30;;;;;;;2.05;0.60;;;19.30;61.10;;;;;;6211880;23;20008;-64
2022/09/15 10:15:00;;;;;;;1.83;0.60;;;19.30;61.00;;;;;;6212557;23;20349;-63
2022/09/15 10:17:41;;;;;;;4.10;1.60;;;19.30;61.00;;;;;;6212339;23;20007;-64
2022/09/15 10:20:27;;;;;;;1.15;0.82;;;19.30;61.20;;;;;;6212179;23;20004;-64
2022/09/15 10:23:03;;;;;;;1.20;0.80;;;19.30;61.40;;;;;;6212122;23;20012;-64
2022/09/15 10:25:32;;;;;;;2.03;0.80;;;19.40;61.80;;;;;;6211981;23;20421;-64
2022/09/15 10:28:18;;;;;;;1.35;0.68;;;19.30;61.90;;;;;;6211328;23;20091;-65
2022/09/15 10:31:01;;;;;;;2.67;0.90;;;19.30;62.00;;;;;;6211474;23;20001;-64
2022/09/15 10:33:29;;;;;;;2.20;1.20;;;19.30;62.20;;;;;;6211715;23;20476;-64
2022/09/15 10:36:02;;;;;;;2.88;1.20;;;19.30;62.30;;;;;;6212002;23;20005;-66
2022/09/15 10:38:48;;;;;;;3.10;1.40;;;19.20;62.40;;;;;;6211480;23;20085;-65
2022/09/15 10:41:16;;;;;;;3.47;1.08;;;19.10;63.00;;;;;;6211729;23;20027;-65
2022/09/15 10:44:12;;;;;;;2.35;0.90;;;19.00;63.70;;;;;;6210763;23;20055;-64
2022/09/15 10:47:01;;;;;;;2.78;0.90;;;18.80;64.40;;;;;;6211797;23;20005;-65
2022/09/15 10:49:39;;;;;;;2.92;0.80;;;18.60;64.90;;;;;;6212046;23;20001;-65
2022/09/15 10:52:15;;;;;;;4.45;1.48;;;18.60;65.50;;;;;;6211371;23;19997;-65
2022/09/15 10:54:49;;;;;;;4.20;1.70;;;18.60;65.70;;;;;;6211438;23;20028;-65
2022/09/15 10:57:21;;;;;;;6.20;3.60;;;18.60;66.00;;;;;;6211324;23;20075;-65
2022/09/15 11:00:08;;;;;;;4.65;2.55;;;18.70;65.50;;;;;;6210514;23;20188;-65
2022/09/15 11:02:52;;;;;;;4.32;1.60;;;18.70;65.30;;;;;;6211854;23;20011;-65
2022/09/15 11:05:56;;;;;;;4.25;1.33;;;18.80;65.00;;;;;;6209935;23;20333;-65
2022/09/15 11:08:38;;;;;;;2.67;1.08;;;18.90;64.60;;;;;;6212072;23;20031;-65
2022/09/15 11:11:19;;;;;;;3.85;0.90;;;18.90;64.40;;;;;;6210327;23;20084;-64
2022/09/15 11:14:04;;;;;;;1.55;0.60;;;19.00;64.00;;;;;;6212224;23;20337;-65
2022/09/15 11:17:02;;;;;;;1.35;0.60;;;19.10;64.50;;;;;;6211732;23;20011;-65
2022/09/15 11:19:58;;;;;;;2.70;0.88;;;19.20;63.90;;;;;;6212035;23;20032;-65
2022/09/15 11:22:32;;;;;;;2.72;0.68;;;19.30;63.60;;;;;;6211201;23;19996;-65
2022/09/15 11:25:22;;;;;;;2.42;0.60;;;19.40;63.30;;;;;;6211624;23;20000;-65
2022/09/15 11:27:56;;;;;;;3.33;0.60;;;19.50;63.80;;;;;;6211579;23;20004;-65
2022/09/15 11:30:24;;;;;;;3.72;0.85;;;19.50;62.80;;;;;;6211921;23;20000;-65
2022/09/15 11:33:20;;;;;;;1.67;0.70;;;19.60;62.90;;;;;;6210550;23;20127;-65
2022/09/15 11:35:54;;;;;;;1.65;0.73;;;19.80;62.60;;;;;;6210273;23;20311;-65
2022/09/15 11:38:34;;;;;;;3.22;0.77;;;19.80;62.10;;;;;;6212123;23;20433;-65
2022/09/15 11:41:20;;;;;;;2.40;0.95;;;19.90;62.10;;;;;;6211787;23;20008;-65
2022/09/15 11:44:09;;;;;;;1.85;0.60;;;20.00;61.40;;;;;;6211955;23;20028;-65
2022/09/15 11:46:57;;;;;;;2.20;0.80;;;20.00;60.90;;;;;;6211720;23;20378;-66
2022/09/15 11:49:39;;;;;;;1.02;0.40;;;20.00;60.40;;;;;;6211541;23;20146;-65
2022/09/15 11:52:10;;;;;;;;;;;20.10;60.30;;;;;;6212175;23;20008;-65
2022/09/15 11:54:53;;;;;;;1.95;0.68;;;20.20;59.80;;;;;;6211602;23;19907;-65
2022/09/15 11:57:25;;;;;;;4.03;0.80;;;20.20;59.30;;;;;;6211642;23;20039;-65
2022/09/15 12:00:06;;;;;;;2.42;0.80;;;20.30;58.50;;;;;;6211574;23;20070;-66
2022/09/15 12:02:50;;;;;;;3.47;0.93;;;20.30;58.20;;;;;;6211745;23;20001;-65
2022/09/15 12:05:34;;;;;;;2.95;1.10;;;20.40;57.90;;;;;;6209802;23;20445;-65
2022/09/15 12:08:19;;;;;;;3.75;0.80;;;20.40;57.70;;;;;;6211546;23;20448;-65
2022/09/15 12:10:51;;;;;;;3.50;1.00;;;20.60;57.30;;;;;;6210827;23;20002;-65
2022/09/15 12:13:19;;;;;;;2.60;0.70;;;20.70;56.90;;;;;;6210993;23;20005;-65
2022/09/15 12:15:46;;;;;;;4.05;0.90;;;20.90;56.80;;;;;;6210732;23;20005;-65
2022/09/15 12:18:33;;;;;;;3.10;0.90;;;21.10;56.30;;;;;;6211053;23;20001;-65
2022/09/15 12:21:13;;;;;;;2.17;0.63;;;21.30;55.90;;;;;;6210945;23;20438;-65
2022/09/15 12:23:58;;;;;;;2.55;0.90;;;21.60;55.50;;;;;;6211052;23;20080;-65
2022/09/15 12:26:25;;;;;;;3.97;1.00;;;21.90;55.20;;;;;;6210533;23;20004;-65
2022/09/15 12:29:02;;;;;;;4.10;1.00;;;22.00;53.80;;;;;;6211115;23;20134;-65
2022/09/15 12:31:36;;;;;;;2.90;0.93;;;21.90;54.30;;;;;;6211490;23;20005;-64
2022/09/15 12:34:24;;;;;;;3.28;0.80;;;21.80;53.80;;;;;;6211191;23;20028;-65
2022/09/15 12:37:13;;;;;;;2.70;1.05;;;21.50;53.80;;;;;;6212684;23;20004;-65
2022/09/15 12:39:40;;;;;;;2.88;1.00;;;21.30;54.20;;;;;;6213181;23;20001;-65
2022/09/15 12:42:26;;;;;;;3.08;0.93;;;21.00;54.40;;;;;;6213238;23;20561;-65
2022/09/15 12:45:03;;;;;;;2.50;0.75;;;20.80;54.30;;;;;;6213385;23;20005;-64
2022/09/15 12:47:48;;;;;;;1.98;0.80;;;20.60;54.80;;;;;;6213330;23;19997;-64
2022/09/15 12:50:36;;;;;;;2.25;0.65;;;20.50;55.10;;;;;;6213514;23;19997;-65
2022/09/15 12:53:21;;;;;;;1.75;0.80;;;20.40;55.20;;;;;;6212925;23;20003;-65
2022/09/15 12:55:51;;;;;;;3.22;0.80;;;20.30;55.30;;;;;;6213043;23;20062;-65
2022/09/15 12:58:29;;;;;;;3.00;1.02;;;20.30;55.70;;;;;;6212848;23;20007;-64
2022/09/15 13:01:17;;;;;;;2.67;0.70;;;20.30;55.70;;;;;;6212253;23;20344;-64
2022/09/15 13:03:42;;;;;;;1.40;0.70;;;20.30;56.00;;;;;;6208970;23;20198;-64
2022/09/15 13:06:21;;;;;;;2.67;0.80;;;20.50;55.70;;;;;;6212815;23;20019;-65
2022/09/15 13:08:53;;;;;;;3.05;1.00;;;20.70;55.50;;;;;;6212351;23;19997;-65
2022/09/15 13:11:41;;;;;;;1.73;0.57;;;21.00;54.60;;;;;;6212555;23;20031;-65
2022/09/15 13:14:26;;;;;;;1.83;0.60;;;21.30;53.80;;;;;;6211471;23;20046;-64